createdAt,value
2019-02-12T00:01:08.541Z,98065.86
2019-02-12T00:03:38.140Z,98067.09
2019-02-12T00:06:07.791Z,98073.41
2019-02-12T00:08:37.451Z,98074.05
2019-02-12T00:11:07.062Z,98071.39
2019-02-12T00:13:36.713Z,98082.09
2019-02-12T00:16:06.394Z,98088.70
2019-02-12T00:18:36.053Z,98078.56
2019-02-12T00:21:09.079Z,98082.36
2019-02-12T00:23:37.124Z,98073.53
2019-02-12T00:26:06.746Z,98079.75
2019-02-12T00:28:36.349Z,98084.47
2019-02-12T00:31:06.634Z,98075.20
2019-02-12T00:33:36.498Z,98090.91
2019-02-12T00:36:06.442Z,98087.91
2019-02-12T00:38:36.202Z,98080.63
2019-02-12T00:41:05.887Z,98084.21
2019-02-12T00:43:35.710Z,98087.64
2019-02-12T00:46:05.412Z,98094.50
2019-02-12T00:48:34.974Z,98106.45
2019-02-12T00:51:04.692Z,98108.23
2019-02-12T00:53:35.057Z,98111.34
2019-02-12T00:56:04.731Z,98116.73
2019-02-12T00:58:34.367Z,98119.68
2019-02-12T01:01:04.139Z,98117.52
2019-02-12T01:03:33.902Z,98108.30
2019-02-12T01:06:03.528Z,98109.75
2019-02-12T01:08:33.240Z,98106.12
2019-02-12T01:11:02.851Z,98109.27
2019-02-12T01:13:32.464Z,98107.70
2019-02-12T01:16:02.285Z,98108.51
2019-02-12T01:18:31.929Z,98111.41
2019-02-12T01:21:01.529Z,98107.56
2019-02-12T01:23:31.189Z,98107.11
2019-02-12T01:26:00.810Z,98106.29
2019-02-12T01:28:30.438Z,98099.36
2019-02-12T01:31:00.098Z,98099.16
2019-02-12T01:33:29.690Z,98103.36
2019-02-12T01:35:59.295Z,98109.30
2019-02-12T01:38:28.989Z,98107.07
2019-02-12T01:40:58.596Z,98107.07
2019-02-12T01:43:28.176Z,98121.11
2019-02-12T01:45:57.810Z,98133.09
2019-02-12T01:48:27.452Z,98130.83
2019-02-12T01:50:57.065Z,98125.08
2019-02-12T01:53:26.756Z,98140.78
2019-02-12T01:55:56.440Z,98155.23
2019-02-12T01:58:26.067Z,98160.20
2019-02-12T02:00:55.709Z,98152.12
2019-02-12T02:03:25.315Z,98145.05
2019-02-12T02:05:54.942Z,98137.31
2019-02-12T02:08:24.575Z,98147.29
2019-02-12T02:10:54.228Z,98148.36
2019-02-12T02:13:23.856Z,98158.94
2019-02-12T02:15:53.494Z,98161.60
2019-02-12T02:18:23.112Z,98158.30
2019-02-12T02:20:52.765Z,98157.25
2019-02-12T02:23:22.397Z,98166.64
2019-02-12T02:25:52.007Z,98181.08
2019-02-12T02:28:21.585Z,98175.74
2019-02-12T02:30:51.216Z,98188.47
2019-02-12T02:33:20.837Z,98189.61
2019-02-12T02:35:50.538Z,98187.78
2019-02-12T02:38:20.276Z,98192.59
2019-02-12T02:40:49.914Z,98195.44
2019-02-12T02:43:19.587Z,98193.95
2019-02-12T02:45:49.282Z,98196.79
2019-02-12T02:48:18.884Z,98201.55
2019-02-12T02:50:48.487Z,98209.73
2019-02-12T02:53:18.184Z,98210.58
2019-02-12T02:55:47.757Z,98222.04
2019-02-12T02:58:17.347Z,98221.72
2019-02-12T03:00:46.959Z,98226.67
2019-02-12T03:03:16.529Z,98221.88
2019-02-12T03:05:46.149Z,98209.89
2019-02-12T03:08:15.853Z,98211.56
2019-02-12T03:10:45.510Z,98218.23
2019-02-12T03:13:15.137Z,98216.48
2019-02-12T03:15:44.833Z,98206.02
2019-02-12T03:18:14.424Z,98210.89
2019-02-12T03:20:44.040Z,98211.50
2019-02-12T03:23:13.711Z,98224.33
2019-02-12T03:25:43.375Z,98232.97
2019-02-12T03:28:12.945Z,98233.94
2019-02-12T03:30:42.588Z,98237.80
2019-02-12T03:33:12.197Z,98232.48
2019-02-12T03:35:41.810Z,98232.66
2019-02-12T03:38:11.445Z,98233.37
2019-02-12T03:40:41.086Z,98243.66
2019-02-12T03:43:10.703Z,98234.48
2019-02-12T03:45:40.373Z,98236.16
2019-02-12T03:48:09.945Z,98240.69
2019-02-12T03:50:39.579Z,98242.14
2019-02-12T03:53:09.233Z,98247.97
2019-02-12T03:55:38.859Z,98239.80
2019-02-12T03:58:08.549Z,98248.02
2019-02-12T04:00:40.254Z,98247.50
2019-02-12T04:03:09.942Z,98251.99
2019-02-12T04:05:40.266Z,98254.87
2019-02-12T04:08:10.203Z,98254.66
2019-02-12T04:10:39.817Z,98258.64
2019-02-12T04:13:09.459Z,98257.64
2019-02-12T04:15:39.090Z,98261.66
2019-02-12T04:18:08.690Z,98264.20
2019-02-12T04:20:38.324Z,98271.06
2019-02-12T04:23:07.901Z,98275.67
2019-02-12T04:25:37.491Z,98275.00
2019-02-12T04:28:07.149Z,98280.51
2019-02-12T04:30:36.836Z,98282.52
2019-02-12T04:33:06.465Z,98283.47
2019-02-12T04:35:36.185Z,98284.80
2019-02-12T04:38:05.768Z,98288.42
2019-02-12T04:40:35.421Z,98288.36
2019-02-12T04:43:05.058Z,98283.67
2019-02-12T04:45:34.671Z,98280.53
2019-02-12T04:48:04.440Z,98274.33
2019-02-12T04:50:34.080Z,98285.13
2019-02-12T04:53:03.717Z,98288.15
2019-02-12T04:55:33.309Z,98291.12
2019-02-12T04:58:03.228Z,98290.78
2019-02-12T05:00:33.598Z,98295.94
2019-02-12T05:03:03.166Z,98297.44
2019-02-12T05:05:32.871Z,98303.42
2019-02-12T05:08:02.459Z,98314.92
2019-02-12T05:10:35.499Z,98315.53
2019-02-12T05:13:05.088Z,98328.30
2019-02-12T05:15:34.679Z,98341.13
2019-02-12T05:18:04.328Z,98343.48
2019-02-12T05:20:34.325Z,98350.46
2019-02-12T05:23:03.897Z,98351.81
2019-02-12T05:25:33.576Z,98350.13
2019-02-12T05:28:03.282Z,98354.33
2019-02-12T05:30:32.915Z,98351.05
2019-02-12T05:33:02.519Z,98351.98
2019-02-12T05:35:32.160Z,98350.02
2019-02-12T05:38:01.825Z,98352.03
2019-02-12T05:40:31.419Z,98352.66
2019-02-12T05:43:01.081Z,98358.16
2019-02-12T05:45:30.677Z,98358.00
2019-02-12T05:48:00.378Z,98359.14
2019-02-12T05:50:29.991Z,98362.50
2019-02-12T05:52:59.676Z,98364.31
2019-02-12T05:55:29.274Z,98375.81
2019-02-12T05:57:58.904Z,98379.27
2019-02-12T06:00:30.633Z,98385.23
2019-02-12T06:03:00.304Z,98382.61
2019-02-12T06:05:30.587Z,98379.14
2019-02-12T06:08:00.181Z,98383.42
2019-02-12T06:10:29.785Z,98378.25
2019-02-12T06:12:59.437Z,98386.56
2019-02-12T06:15:29.136Z,98383.53
2019-02-12T06:17:58.849Z,98373.61
2019-02-12T06:20:28.494Z,98376.13
2019-02-12T06:23:03.669Z,98378.48
2019-02-12T06:25:29.377Z,98378.80
2019-02-12T06:27:59.003Z,98379.77
2019-02-12T06:30:28.687Z,98382.33
2019-02-12T06:33:06.970Z,98377.77
2019-02-12T06:35:29.692Z,98371.43
2019-02-12T06:37:59.416Z,98362.10
2019-02-12T06:40:29.067Z,98371.92
2019-02-12T06:42:58.717Z,98375.74
2019-02-12T06:45:28.364Z,98371.52
2019-02-12T06:47:57.959Z,98380.36
2019-02-12T06:50:27.577Z,98379.07
2019-02-12T06:52:57.307Z,98372.84
2019-02-12T06:55:26.875Z,98383.55
2019-02-12T06:57:56.485Z,98391.55
2019-02-12T07:00:26.204Z,98399.91
2019-02-12T07:03:15.663Z,98409.27
2019-02-12T07:06:01.318Z,98408.59
2019-02-12T07:08:54.137Z,98414.29
2019-02-12T07:12:11.610Z,98425.98
2019-02-12T07:15:18.427Z,98422.30
2019-02-12T07:18:46.622Z,98426.45
2019-02-12T07:21:44.168Z,98434.27
2019-02-12T07:24:50.598Z,98436.31
2019-02-12T07:28:08.280Z,98434.16
2019-02-12T07:31:05.304Z,98432.82
2019-02-12T07:34:28.784Z,98420.10
2019-02-12T07:37:29.543Z,98425.89
2019-02-12T07:40:09.082Z,98426.92
2019-02-12T07:43:25.293Z,98420.70
2019-02-12T07:46:38.504Z,98413.51
2019-02-12T07:49:34.891Z,98410.08
2019-02-12T07:53:06.727Z,98413.94
2019-02-12T07:56:11.490Z,98414.95
2019-02-12T07:59:16.460Z,98414.28
2019-02-12T08:02:30.934Z,98418.61
2019-02-12T08:05:39.795Z,98422.65
2019-02-12T08:08:46.260Z,98428.97
2019-02-12T08:12:05.486Z,98434.84
2019-02-12T08:15:05.586Z,98435.36
2019-02-12T08:17:59.743Z,98426.52
2019-02-12T08:21:05.851Z,98426.14
2019-02-12T08:24:17.279Z,98445.69
2019-02-12T08:26:59.959Z,98433.67
2019-02-12T08:30:12.318Z,98448.67
2019-02-12T08:33:26.105Z,98458.02
2019-02-12T08:36:11.882Z,98465.68
2019-02-12T08:39:10.236Z,98460.69
2019-02-12T08:42:08.411Z,98464.47
2019-02-12T08:45:03.624Z,98466.31
2019-02-12T08:48:11.986Z,98472.84
2019-02-12T08:51:22.934Z,98475.83
2019-02-12T08:54:55.142Z,98479.83
2019-02-12T08:57:53.857Z,98474.29
2019-02-12T09:00:59.671Z,98479.94
2019-02-12T09:04:03.464Z,98472.91
2019-02-12T09:06:59.886Z,98477.73
2019-02-12T09:10:03.546Z,98486.03
2019-02-12T09:12:48.111Z,98487.11
2019-02-12T09:16:04.396Z,98499.49
2019-02-12T09:19:01.436Z,98508.75
2019-02-12T09:22:02.693Z,98511.88
2019-02-12T09:25:01.723Z,98508.70
2019-02-12T09:27:59.353Z,98504.12
2019-02-12T09:31:03.576Z,98518.14
2019-02-12T09:34:12.813Z,98516.88
2019-02-12T09:37:06.653Z,98516.49
2019-02-12T09:40:28.079Z,98523.14
2019-02-12T09:43:50.449Z,98506.61
2019-02-12T09:47:01.411Z,98522.95
2019-02-12T09:50:21.046Z,98526.69
2019-02-12T09:53:28.582Z,98526.78
2019-02-12T09:56:09.074Z,98531.31
2019-02-12T09:59:27.158Z,98529.80
2019-02-12T10:02:34.777Z,98533.61
2019-02-12T10:05:57.320Z,98525.85
2019-02-12T10:08:38.612Z,98538.89
2019-02-12T10:11:18.229Z,98530.03
2019-02-12T10:14:18.338Z,98534.12
2019-02-12T10:16:58.609Z,98523.98
2019-02-12T10:19:36.438Z,98522.53
2019-02-12T10:23:00.621Z,98538.16
2019-02-12T10:25:36.194Z,98535.92
2019-02-12T10:28:48.575Z,98548.00
2019-02-12T10:31:34.817Z,98545.80
2019-02-12T10:34:04.559Z,98552.23
2019-02-12T10:36:34.174Z,98552.95
2019-02-12T10:39:04.604Z,98558.83
2019-02-12T10:41:34.392Z,98567.23
2019-02-12T10:44:03.987Z,98564.84
2019-02-12T10:46:33.612Z,98573.80
2019-02-12T10:49:03.265Z,98581.34
2019-02-12T10:51:33.039Z,98572.75
2019-02-12T10:54:02.705Z,98584.06
2019-02-12T10:56:32.302Z,98580.21
2019-02-12T10:59:01.904Z,98578.08
2019-02-12T11:01:31.661Z,98572.88
2019-02-12T11:04:01.481Z,98588.85
2019-02-12T11:06:31.147Z,98587.99
2019-02-12T11:09:01.006Z,98589.55
2019-02-12T11:11:30.645Z,98598.83
2019-02-12T11:14:00.428Z,98598.50
2019-02-12T11:16:30.200Z,98612.73
2019-02-12T11:18:59.902Z,98624.78
2019-02-12T11:21:29.512Z,98617.47
2019-02-12T11:23:59.276Z,98619.58
2019-02-12T11:26:28.896Z,98624.14
2019-02-12T11:28:58.640Z,98623.06
2019-02-12T11:31:28.440Z,98636.55
2019-02-12T11:33:58.062Z,98651.60
2019-02-12T11:36:27.818Z,98653.62
2019-02-12T11:38:57.560Z,98650.03
2019-02-12T11:41:27.169Z,98654.21
2019-02-12T11:43:56.785Z,98647.20
2019-02-12T11:46:26.701Z,98658.21
2019-02-12T11:48:56.357Z,98658.14
2019-02-12T11:51:26.029Z,98657.31
2019-02-12T11:53:55.743Z,98672.14
2019-02-12T11:56:29.197Z,98688.65
2019-02-12T11:58:58.950Z,98689.57
2019-02-12T12:01:30.661Z,98673.81
2019-02-12T12:04:00.268Z,98686.62
2019-02-12T12:06:29.973Z,98680.98
2019-02-12T12:08:59.648Z,98692.86
2019-02-12T12:11:29.314Z,98688.63
2019-02-12T12:13:59.026Z,98689.62
2019-02-12T12:16:28.633Z,98701.27
2019-02-12T12:18:58.262Z,98705.11
2019-02-12T12:21:27.895Z,98707.02
2019-02-12T12:23:57.542Z,98708.84
2019-02-12T12:26:27.203Z,98715.17
2019-02-12T12:28:57.006Z,98722.92
2019-02-12T12:31:26.690Z,98719.55
2019-02-12T12:33:56.396Z,98726.62
2019-02-12T12:36:26.044Z,98728.62
2019-02-12T12:38:55.686Z,98726.42
2019-02-12T12:41:25.398Z,98736.16
2019-02-12T12:43:55.047Z,98738.63
2019-02-12T12:46:24.815Z,98734.20
2019-02-12T12:48:54.877Z,98741.29
2019-02-12T12:51:27.686Z,98761.22
2019-02-12T12:53:57.387Z,98745.88
2019-02-12T12:56:27.125Z,98761.27
2019-02-12T12:58:56.933Z,98753.28
2019-02-12T13:01:26.756Z,98753.63
2019-02-12T13:03:56.449Z,98766.97
2019-02-12T13:06:26.144Z,98765.44
2019-02-12T13:08:55.899Z,98755.41
2019-02-12T13:11:26.726Z,98773.19
2019-02-12T13:13:56.526Z,98768.00
2019-02-12T13:16:26.298Z,98778.20
2019-02-12T13:18:56.042Z,98776.70
2019-02-12T13:21:25.771Z,98778.20
2019-02-12T13:23:55.631Z,98793.39
2019-02-12T13:26:25.517Z,98799.28
2019-02-12T13:28:55.339Z,98806.29
2019-02-12T13:31:25.161Z,98804.66
2019-02-12T13:33:54.887Z,98827.23
2019-02-12T13:36:24.714Z,98829.17
2019-02-12T13:38:54.436Z,98824.88
2019-02-12T13:41:24.132Z,98825.84
2019-02-12T13:43:53.880Z,98831.69
2019-02-12T13:46:23.613Z,98840.89
2019-02-12T13:48:53.389Z,98846.55
2019-02-12T13:51:23.084Z,98847.25
2019-02-12T13:53:52.814Z,98864.63
2019-02-12T13:56:22.554Z,98866.09
2019-02-12T13:58:52.302Z,98854.20
2019-02-12T14:01:22.019Z,98862.72
2019-02-12T14:03:51.707Z,98868.43
2019-02-12T14:06:21.428Z,98873.96
2019-02-12T14:08:52.173Z,98879.80
2019-02-12T14:11:21.852Z,98882.17
2019-02-12T14:13:51.651Z,98877.48
2019-02-12T14:16:22.528Z,98876.94
2019-02-12T14:18:52.316Z,98884.28
2019-02-12T14:21:23.969Z,98893.13
2019-02-12T14:23:54.123Z,98892.64
2019-02-12T14:26:23.851Z,98912.02
2019-02-12T14:28:53.649Z,98903.86
2019-02-12T14:31:23.440Z,98914.19
2019-02-12T14:33:53.101Z,98925.50
2019-02-12T14:36:22.823Z,98929.06
2019-02-12T14:38:53.448Z,98930.83
2019-02-12T14:41:23.275Z,98942.30
2019-02-12T14:43:52.967Z,98941.62
2019-02-12T14:46:22.673Z,98949.58
2019-02-12T14:48:52.947Z,98948.59
2019-02-12T14:51:22.684Z,98951.65
2019-02-12T14:53:52.477Z,98959.79
2019-02-12T14:56:22.217Z,98955.63
2019-02-12T14:58:52.027Z,98966.14
2019-02-12T15:01:21.801Z,98960.44
2019-02-12T15:03:51.692Z,98972.13
2019-02-12T15:06:21.519Z,98975.91
2019-02-12T15:08:51.342Z,98969.22
2019-02-12T15:11:21.055Z,98983.12
2019-02-12T15:13:50.914Z,98990.26
2019-02-12T15:16:20.827Z,98986.23
2019-02-12T15:18:50.509Z,98980.29
2019-02-12T15:21:20.210Z,98977.66
2019-02-12T15:23:50.027Z,98994.64
2019-02-12T15:26:19.794Z,98994.20
2019-02-12T15:28:51.078Z,98993.88
2019-02-12T15:31:20.907Z,99003.94
2019-02-12T15:33:50.656Z,99002.56
2019-02-12T15:36:20.440Z,98997.60
2019-02-12T15:38:50.236Z,99004.22
2019-02-12T15:41:19.930Z,99026.55
2019-02-12T15:43:49.614Z,99019.74
2019-02-12T15:46:19.377Z,99020.31
2019-02-12T15:48:49.054Z,99031.10
2019-02-12T15:51:18.735Z,99032.50
2019-02-12T15:53:48.581Z,99035.38
2019-02-12T15:56:18.287Z,99035.94
2019-02-12T15:58:49.275Z,99058.88
2019-02-12T16:01:19.397Z,99047.88
2019-02-12T16:03:49.180Z,99052.33
2019-02-12T16:06:19.225Z,99073.59
2019-02-12T16:08:51.928Z,99073.73
2019-02-12T16:11:22.020Z,99073.34
2019-02-12T16:13:51.857Z,99085.70
2019-02-12T16:16:21.615Z,99086.22
2019-02-12T16:18:51.459Z,99101.27
2019-02-12T16:21:21.188Z,99093.03
2019-02-12T16:23:51.131Z,99106.33
2019-02-12T16:26:20.855Z,99114.11
2019-02-12T16:28:50.598Z,99108.56
2019-02-12T16:31:20.387Z,99135.30
2019-02-12T16:33:51.673Z,99143.98
2019-02-12T16:36:21.454Z,99147.72
2019-02-12T16:38:51.180Z,99149.59
2019-02-12T16:41:20.874Z,99152.25
2019-02-12T16:43:50.638Z,99155.02
2019-02-12T16:46:23.282Z,99169.64
2019-02-12T16:48:53.345Z,99173.88
2019-02-12T16:51:23.061Z,99172.98
2019-02-12T16:53:52.789Z,99170.55
2019-02-12T16:56:22.636Z,99189.95
2019-02-12T16:58:52.322Z,99196.63
2019-02-12T17:01:22.076Z,99202.64
2019-02-12T17:03:53.601Z,99203.66
2019-02-12T17:06:23.469Z,99204.36
2019-02-12T17:08:53.446Z,99229.19
2019-02-12T17:11:23.169Z,99224.34
2019-02-12T17:59:37.960Z,99286.29
2019-02-12T18:02:07.723Z,99281.46
2019-02-12T18:04:37.545Z,99284.87
2019-02-12T18:07:07.511Z,99243.81
2019-02-12T18:09:37.885Z,99290.41
2019-02-12T18:12:08.002Z,99293.84
2019-02-12T18:14:38.227Z,99290.69
2019-02-12T18:17:07.960Z,99296.53
2019-02-12T18:19:37.754Z,99294.17
2019-02-12T18:22:07.507Z,99290.80
2019-02-12T18:24:37.303Z,99293.38
2019-02-12T18:27:07.064Z,99301.11
2019-02-12T18:29:37.015Z,99306.89
2019-02-12T18:32:06.828Z,99313.30
2019-02-12T18:34:36.573Z,99322.53
2019-02-12T18:37:06.304Z,99311.75
2019-02-12T18:39:37.800Z,99317.21
2019-02-12T18:42:11.586Z,99314.78
2019-02-12T18:44:42.262Z,99316.28
2019-02-12T18:47:12.667Z,99322.13
2019-02-12T18:49:43.440Z,99324.39
2019-02-12T18:52:13.926Z,99326.43
2019-02-12T18:54:44.361Z,99330.11
2019-02-12T18:57:14.699Z,99328.04
2019-02-12T18:59:45.841Z,99327.55
2019-02-12T19:02:16.306Z,99330.20
2019-02-12T19:04:47.667Z,99335.28
2019-02-12T19:07:19.789Z,99331.44
2019-02-12T19:09:51.239Z,99331.34
2019-02-12T19:12:24.292Z,99331.34
2019-02-12T19:14:55.266Z,99341.63
2019-02-12T19:17:25.886Z,99342.90
2019-02-12T19:19:56.743Z,99347.69
2019-02-12T19:22:27.601Z,99347.72
2019-02-12T19:24:59.036Z,99361.67
2019-02-12T19:27:31.818Z,99368.55
2019-02-12T19:30:03.316Z,99368.03
2019-02-12T19:32:34.636Z,99365.39
2019-02-12T19:35:05.739Z,99380.28
2019-02-12T19:37:44.395Z,99384.06
2019-02-12T19:40:19.529Z,99390.44
2019-02-12T19:42:53.919Z,99390.39
2019-02-12T19:45:25.384Z,99380.59
2019-02-12T19:47:57.311Z,99295.00
2019-02-12T19:50:31.949Z,99384.61
2019-02-12T19:53:02.852Z,99368.30
2019-02-12T19:55:37.984Z,99395.95
2019-02-12T19:58:11.136Z,99395.28
2019-02-12T20:00:54.548Z,99394.78
2019-02-12T20:03:27.503Z,99387.80
2019-02-12T20:05:58.959Z,99391.13
2019-02-12T20:08:32.411Z,99391.02
2019-02-12T20:11:03.497Z,99383.48
2019-02-12T20:13:38.499Z,99389.47
2019-02-12T20:16:11.704Z,99403.83
2019-02-12T20:18:45.662Z,99395.26
2019-02-12T20:21:16.782Z,99395.36
2019-02-12T20:23:52.804Z,99391.64
2019-02-12T20:26:25.261Z,99393.31
2019-02-12T20:28:57.378Z,99403.05
2019-02-12T20:31:28.982Z,99425.32
2019-02-12T20:34:01.636Z,99419.67
2019-02-12T20:36:33.831Z,99416.71
2019-02-12T20:39:06.875Z,99416.08
2019-02-12T20:41:38.177Z,99432.48
2019-02-12T20:44:09.662Z,99425.06
2019-02-12T20:46:40.698Z,99422.39
2019-02-12T20:49:11.181Z,99416.30
2019-02-12T20:51:44.467Z,99420.58
2019-02-12T20:54:17.033Z,99418.17
2019-02-12T20:56:50.036Z,99430.61
2019-02-12T20:59:23.937Z,99421.84
2019-02-12T21:01:57.242Z,99429.06
2019-02-12T21:04:28.323Z,99421.25
2019-02-12T21:07:02.458Z,99433.05
2019-02-12T21:09:36.513Z,99430.44
2019-02-12T21:12:07.515Z,99430.39
2019-02-12T21:14:38.854Z,99442.03
2019-02-12T21:17:11.231Z,99442.03
2019-02-12T21:19:42.599Z,99444.46
2019-02-12T21:22:15.919Z,99448.57
2019-02-12T21:24:47.157Z,99440.48
2019-02-12T21:27:40.993Z,99450.56
2019-02-12T21:33:11.137Z,99448.78
2019-02-12T21:35:42.062Z,99455.98
2019-02-12T21:38:16.214Z,99463.20
2019-02-12T21:40:49.435Z,99462.81
2019-02-12T21:43:19.786Z,99465.41
2019-02-12T21:45:52.717Z,99473.52
2019-02-12T21:48:24.327Z,99480.86
2019-02-12T21:50:55.329Z,99477.81
2019-02-12T21:53:28.192Z,99473.23
2019-02-12T21:55:58.974Z,99480.64
2019-02-12T21:58:30.633Z,99481.63
2019-02-12T22:01:06.762Z,99483.11
2019-02-12T22:03:36.953Z,99484.47
2019-02-12T22:06:07.277Z,99489.64
2019-02-12T22:08:37.882Z,99497.44
2019-02-12T22:11:11.408Z,99497.66
2019-02-12T22:13:43.062Z,99495.11
2019-02-12T22:16:15.780Z,99494.66
2019-02-12T22:18:48.211Z,99500.63
2019-02-12T22:21:18.591Z,99497.84
2019-02-12T22:23:52.003Z,99499.38
2019-02-12T22:26:22.570Z,99502.44
2019-02-12T22:28:52.916Z,99500.98
2019-02-12T22:31:23.207Z,99506.59
2019-02-12T22:33:55.344Z,99502.75
2019-02-12T22:36:26.655Z,99512.73
2019-02-12T22:38:56.895Z,99509.97
2019-02-12T22:41:29.393Z,99506.31
2019-02-12T22:43:59.484Z,99515.84
2019-02-12T22:46:32.366Z,99509.09
2019-02-12T22:49:04.463Z,99506.20
2019-02-12T22:51:34.738Z,99508.75
2019-02-12T22:54:04.901Z,99418.82
2019-02-12T22:56:35.803Z,99523.69
2019-02-12T22:59:06.292Z,99530.38
2019-02-12T23:01:40.706Z,99534.17
2019-02-12T23:04:11.033Z,99542.38
2019-02-12T23:06:41.345Z,99531.39
2019-02-12T23:09:16.736Z,99538.55
2019-02-12T23:11:47.329Z,99538.66
2019-02-12T23:14:17.855Z,99530.86
2019-02-12T23:16:48.006Z,99529.73
2019-02-12T23:19:19.325Z,99522.93
2019-02-12T23:21:50.244Z,99534.29
2019-02-12T23:24:21.244Z,99537.63
2019-02-12T23:26:51.850Z,99540.66
2019-02-12T23:29:22.128Z,99554.56
2019-02-12T23:31:53.071Z,99544.27
2019-02-12T23:34:23.319Z,99550.45
2019-02-12T23:36:53.468Z,99554.31
2019-02-12T23:39:23.826Z,99545.83
2019-02-12T23:41:54.093Z,99557.47
2019-02-12T23:44:24.489Z,99556.72
2019-02-12T23:46:55.430Z,99582.84
2019-02-12T23:49:26.004Z,99574.24
2019-02-12T23:51:56.417Z,99573.17
2019-02-12T23:54:26.637Z,99569.33
2019-02-12T23:56:57.318Z,99571.86
2019-02-12T23:59:27.624Z,99582.00
